sensor_id;sensor_type;location;lat;lon;timestamp;P1;durP1;ratioP1;P2;durP2;ratioP2
12703;SDS011;6416;52.182;7.650;2022-11-20T00:01:08;8.50;;;7.60;;
12703;SDS011;6416;52.182;7.650;2022-11-20T00:03:36;8.77;;;7.20;;
12703;SDS011;6416;52.182;7.650;2022-11-20T00:06:05;8.47;;;7.40;;
12703;SDS011;6416;52.182;7.650;2022-11-20T00:08:34;8.40;;;6.47;;
12703;SDS011;6416;52.182;7.650;2022-11-20T00:11:10;7.77;;;6.97;;
12703;SDS011;6416;52.182;7.650;2022-11-20T00:13:41;8.20;;;6.53;;
12703;SDS011;6416;52.182;7.650;2022-11-20T00:16:08;8.63;;;6.90;;
12703;SDS011;6416;52.182;7.650;2022-11-20T00:18:35;9.37;;;7.20;;
12703;SDS011;6416;52.182;7.650;2022-11-20T00:21:04;8.67;;;7.43;;
12703;SDS011;6416;52.182;7.650;2022-11-20T00:23:31;8.60;;;7.07;;
12703;SDS011;6416;52.182;7.650;2022-11-20T00:26:00;7.67;;;6.67;;
12703;SDS011;6416;52.182;7.650;2022-11-20T00:28:27;9.17;;;7.10;;
12703;SDS011;6416;52.182;7.650;2022-11-20T00:30:54;9.57;;;7.33;;
12703;SDS011;6416;52.182;7.650;2022-11-20T00:33:38;8.93;;;6.97;;
12703;SDS011;6416;52.182;7.650;2022-11-20T00:36:08;8.67;;;7.47;;
12703;SDS011;6416;52.182;7.650;2022-11-20T00:38:35;9.37;;;7.43;;
12703;SDS011;6416;52.182;7.650;2022-11-20T00:41:02;8.10;;;7.10;;
12703;SDS011;6416;52.182;7.650;2022-11-20T00:43:30;8.23;;;7.07;;
12703;SDS011;6416;52.182;7.650;2022-11-20T00:46:05;10.63;;;8.40;;
12703;SDS011;6416;52.182;7.650;2022-11-20T00:48:32;9.83;;;8.17;;
12703;SDS011;6416;52.182;7.650;2022-11-20T00:50:58;9.87;;;8.20;;
12703;SDS011;6416;52.182;7.650;2022-11-20T00:53:24;10.70;;;8.37;;
12703;SDS011;6416;52.182;7.650;2022-11-20T00:55:57;12.03;;;8.73;;
12703;SDS011;6416;52.182;7.650;2022-11-20T00:58:24;12.37;;;9.23;;
12703;SDS011;6416;52.182;7.650;2022-11-20T01:00:59;10.73;;;9.13;;
12703;SDS011;6416;52.182;7.650;2022-11-20T01:03:25;10.20;;;9.10;;
12703;SDS011;6416;52.182;7.650;2022-11-20T01:05:51;10.80;;;9.10;;
12703;SDS011;6416;52.182;7.650;2022-11-20T01:08:16;11.03;;;8.87;;
12703;SDS011;6416;52.182;7.650;2022-11-20T01:10:42;12.67;;;9.83;;
12703;SDS011;6416;52.182;7.650;2022-11-20T01:13:07;13.80;;;9.90;;
12703;SDS011;6416;52.182;7.650;2022-11-20T01:15:33;11.77;;;9.43;;
12703;SDS011;6416;52.182;7.650;2022-11-20T01:17:58;12.50;;;9.43;;
12703;SDS011;6416;52.182;7.650;2022-11-20T01:20:24;12.23;;;9.50;;
12703;SDS011;6416;52.182;7.650;2022-11-20T01:22:49;13.20;;;10.00;;
12703;SDS011;6416;52.182;7.650;2022-11-20T01:25:15;11.87;;;8.70;;
12703;SDS011;6416;52.182;7.650;2022-11-20T01:27:40;11.83;;;9.50;;
12703;SDS011;6416;52.182;7.650;2022-11-20T01:30:06;12.50;;;9.67;;
12703;SDS011;6416;52.182;7.650;2022-11-20T01:32:32;13.20;;;10.00;;
12703;SDS011;6416;52.182;7.650;2022-11-20T01:34:57;12.00;;;9.33;;
12703;SDS011;6416;52.182;7.650;2022-11-20T01:37:23;11.40;;;8.67;;
12703;SDS011;6416;52.182;7.650;2022-11-20T01:39:48;11.33;;;9.13;;
12703;SDS011;6416;52.182;7.650;2022-11-20T01:42:14;12.53;;;9.30;;
12703;SDS011;6416;52.182;7.650;2022-11-20T01:47:08;13.83;;;10.93;;
12703;SDS011;6416;52.182;7.650;2022-11-20T01:52:30;11.80;;;9.33;;
12703;SDS011;6416;52.182;7.650;2022-11-20T01:55:05;13.10;;;10.13;;
12703;SDS011;6416;52.182;7.650;2022-11-20T01:57:34;10.73;;;9.10;;
12703;SDS011;6416;52.182;7.650;2022-11-20T02:00:05;12.20;;;9.30;;
12703;SDS011;6416;52.182;7.650;2022-11-20T02:02:33;13.57;;;9.80;;
12703;SDS011;6416;52.182;7.650;2022-11-20T02:05:01;12.13;;;8.97;;
12703;SDS011;6416;52.182;7.650;2022-11-20T02:07:36;10.83;;;9.07;;
12703;SDS011;6416;52.182;7.650;2022-11-20T02:10:02;9.83;;;8.10;;
12703;SDS011;6416;52.182;7.650;2022-11-20T02:12:28;9.90;;;7.73;;
12703;SDS011;6416;52.182;7.650;2022-11-20T02:14:53;10.97;;;8.10;;
12703;SDS011;6416;52.182;7.650;2022-11-20T02:17:19;10.60;;;8.23;;
12703;SDS011;6416;52.182;7.650;2022-11-20T02:19:45;8.70;;;7.43;;
12703;SDS011;6416;52.182;7.650;2022-11-20T02:22:13;8.63;;;7.37;;
12703;SDS011;6416;52.182;7.650;2022-11-20T02:24:44;8.77;;;7.03;;
12703;SDS011;6416;52.182;7.650;2022-11-20T02:27:12;8.20;;;7.33;;
12703;SDS011;6416;52.182;7.650;2022-11-20T02:29:40;8.13;;;6.80;;
12703;SDS011;6416;52.182;7.650;2022-11-20T02:32:21;8.27;;;6.70;;
12703;SDS011;6416;52.182;7.650;2022-11-20T02:34:50;7.60;;;6.40;;
12703;SDS011;6416;52.182;7.650;2022-11-20T02:37:15;7.00;;;6.10;;
12703;SDS011;6416;52.182;7.650;2022-11-20T02:39:43;7.77;;;6.37;;
12703;SDS011;6416;52.182;7.650;2022-11-20T02:42:11;7.10;;;6.30;;
12703;SDS011;6416;52.182;7.650;2022-11-20T02:44:36;8.10;;;6.80;;
12703;SDS011;6416;52.182;7.650;2022-11-20T02:47:02;7.77;;;6.57;;
12703;SDS011;6416;52.182;7.650;2022-11-20T02:49:27;8.33;;;6.63;;
12703;SDS011;6416;52.182;7.650;2022-11-20T02:51:53;7.27;;;6.07;;
12703;SDS011;6416;52.182;7.650;2022-11-20T02:54:18;7.20;;;6.03;;
12703;SDS011;6416;52.182;7.650;2022-11-20T02:56:44;7.67;;;6.40;;
12703;SDS011;6416;52.182;7.650;2022-11-20T02:59:09;6.40;;;5.60;;
12703;SDS011;6416;52.182;7.650;2022-11-20T03:01:35;7.37;;;6.10;;
12703;SDS011;6416;52.182;7.650;2022-11-20T03:04:01;8.87;;;6.93;;
12703;SDS011;6416;52.182;7.650;2022-11-20T03:06:26;7.47;;;6.10;;
12703;SDS011;6416;52.182;7.650;2022-11-20T03:08:52;6.93;;;6.00;;
12703;SDS011;6416;52.182;7.650;2022-11-20T03:11:17;7.43;;;6.60;;
12703;SDS011;6416;52.182;7.650;2022-11-20T03:13:43;7.47;;;6.00;;
12703;SDS011;6416;52.182;7.650;2022-11-20T03:16:09;6.87;;;6.13;;
12703;SDS011;6416;52.182;7.650;2022-11-20T03:18:37;8.13;;;6.43;;
12703;SDS011;6416;52.182;7.650;2022-11-20T03:21:03;6.90;;;6.20;;
12703;SDS011;6416;52.182;7.650;2022-11-20T03:23:29;9.80;;;7.17;;
12703;SDS011;6416;52.182;7.650;2022-11-20T03:25:56;7.03;;;6.00;;
12703;SDS011;6416;52.182;7.650;2022-11-20T03:28:31;6.93;;;6.03;;
12703;SDS011;6416;52.182;7.650;2022-11-20T03:30:57;7.03;;;5.77;;
12703;SDS011;6416;52.182;7.650;2022-11-20T03:33:22;7.50;;;6.13;;
12703;SDS011;6416;52.182;7.650;2022-11-20T03:35:47;8.47;;;5.33;;
12703;SDS011;6416;52.182;7.650;2022-11-20T03:38:13;6.57;;;5.67;;
12703;SDS011;6416;52.182;7.650;2022-11-20T03:40:38;6.63;;;5.53;;
12703;SDS011;6416;52.182;7.650;2022-11-20T03:43:04;6.07;;;5.47;;
12703;SDS011;6416;52.182;7.650;2022-11-20T03:45:29;6.73;;;5.80;;
12703;SDS011;6416;52.182;7.650;2022-11-20T03:47:55;6.40;;;5.77;;
12703;SDS011;6416;52.182;7.650;2022-11-20T03:50:20;7.90;;;5.93;;
12703;SDS011;6416;52.182;7.650;2022-11-20T03:52:46;6.30;;;5.17;;
12703;SDS011;6416;52.182;7.650;2022-11-20T03:55:11;6.57;;;5.87;;
12703;SDS011;6416;52.182;7.650;2022-11-20T03:57:36;6.83;;;5.73;;
12703;SDS011;6416;52.182;7.650;2022-11-20T04:00:03;6.07;;;5.40;;
12703;SDS011;6416;52.182;7.650;2022-11-20T04:02:29;6.80;;;5.40;;
12703;SDS011;6416;52.182;7.650;2022-11-20T04:04:54;6.87;;;5.70;;
12703;SDS011;6416;52.182;7.650;2022-11-20T04:07:20;5.53;;;5.00;;
12703;SDS011;6416;52.182;7.650;2022-11-20T04:09:45;6.47;;;5.50;;
12703;SDS011;6416;52.182;7.650;2022-11-20T04:12:11;6.77;;;5.37;;
12703;SDS011;6416;52.182;7.650;2022-11-20T04:14:36;6.13;;;5.23;;
12703;SDS011;6416;52.182;7.650;2022-11-20T04:17:02;5.53;;;4.93;;
12703;SDS011;6416;52.182;7.650;2022-11-20T04:19:28;5.50;;;5.00;;
12703;SDS011;6416;52.182;7.650;2022-11-20T04:21:53;5.83;;;4.60;;
12703;SDS011;6416;52.182;7.650;2022-11-20T04:24:22;5.10;;;4.60;;
12703;SDS011;6416;52.182;7.650;2022-11-20T04:26:47;5.63;;;4.77;;
12703;SDS011;6416;52.182;7.650;2022-11-20T04:29:13;6.50;;;5.40;;
12703;SDS011;6416;52.182;7.650;2022-11-20T04:31:38;5.40;;;4.90;;
12703;SDS011;6416;52.182;7.650;2022-11-20T04:34:05;5.40;;;4.90;;
12703;SDS011;6416;52.182;7.650;2022-11-20T04:36:32;6.13;;;4.97;;
12703;SDS011;6416;52.182;7.650;2022-11-20T04:38:59;5.33;;;4.80;;
12703;SDS011;6416;52.182;7.650;2022-11-20T04:41:30;5.73;;;5.13;;
12703;SDS011;6416;52.182;7.650;2022-11-20T04:43:58;6.83;;;5.27;;
12703;SDS011;6416;52.182;7.650;2022-11-20T04:46:25;5.57;;;5.00;;
12703;SDS011;6416;52.182;7.650;2022-11-20T04:48:52;6.00;;;5.00;;
12703;SDS011;6416;52.182;7.650;2022-11-20T04:51:18;5.47;;;4.73;;
12703;SDS011;6416;52.182;7.650;2022-11-20T04:53:43;5.47;;;4.90;;
12703;SDS011;6416;52.182;7.650;2022-11-20T04:56:09;5.07;;;4.57;;
12703;SDS011;6416;52.182;7.650;2022-11-20T04:58:36;5.67;;;5.07;;
12703;SDS011;6416;52.182;7.650;2022-11-20T05:01:04;6.13;;;5.00;;
12703;SDS011;6416;52.182;7.650;2022-11-20T05:03:31;5.20;;;4.70;;
12703;SDS011;6416;52.182;7.650;2022-11-20T05:05:59;5.40;;;4.57;;
12703;SDS011;6416;52.182;7.650;2022-11-20T05:08:26;5.80;;;5.20;;
12703;SDS011;6416;52.182;7.650;2022-11-20T05:10:51;7.17;;;5.50;;
12703;SDS011;6416;52.182;7.650;2022-11-20T05:13:17;5.20;;;4.70;;
12703;SDS011;6416;52.182;7.650;2022-11-20T05:15:42;6.00;;;5.40;;
12703;SDS011;6416;52.182;7.650;2022-11-20T05:18:08;5.43;;;4.93;;
12703;SDS011;6416;52.182;7.650;2022-11-20T05:20:33;5.30;;;4.80;;
12703;SDS011;6416;52.182;7.650;2022-11-20T05:22:59;6.00;;;5.40;;
12703;SDS011;6416;52.182;7.650;2022-11-20T05:25:24;5.87;;;5.10;;
12703;SDS011;6416;52.182;7.650;2022-11-20T05:27:50;6.17;;;5.57;;
12703;SDS011;6416;52.182;7.650;2022-11-20T05:30:15;5.60;;;4.97;;
12703;SDS011;6416;52.182;7.650;2022-11-20T05:32:41;6.43;;;5.30;;
12703;SDS011;6416;52.182;7.650;2022-11-20T05:35:06;6.07;;;5.37;;
12703;SDS011;6416;52.182;7.650;2022-11-20T05:37:32;6.07;;;5.30;;
12703;SDS011;6416;52.182;7.650;2022-11-20T05:39:58;5.30;;;4.80;;
12703;SDS011;6416;52.182;7.650;2022-11-20T05:42:23;6.67;;;5.60;;
12703;SDS011;6416;52.182;7.650;2022-11-20T05:44:49;5.60;;;5.07;;
12703;SDS011;6416;52.182;7.650;2022-11-20T05:47:14;6.20;;;5.60;;
12703;SDS011;6416;52.182;7.650;2022-11-20T05:49:40;5.90;;;4.90;;
12703;SDS011;6416;52.182;7.650;2022-11-20T05:52:05;5.23;;;4.73;;
12703;SDS011;6416;52.182;7.650;2022-11-20T05:54:30;5.37;;;4.70;;
12703;SDS011;6416;52.182;7.650;2022-11-20T05:56:56;5.80;;;5.10;;
12703;SDS011;6416;52.182;7.650;2022-11-20T05:59:21;8.17;;;5.70;;
12703;SDS011;6416;52.182;7.650;2022-11-20T06:01:47;6.63;;;5.80;;
12703;SDS011;6416;52.182;7.650;2022-11-20T06:04:12;6.53;;;5.80;;
12703;SDS011;6416;52.182;7.650;2022-11-20T06:06:38;6.07;;;5.43;;
12703;SDS011;6416;52.182;7.650;2022-11-20T06:09:03;5.63;;;5.07;;
12703;SDS011;6416;52.182;7.650;2022-11-20T06:11:29;6.60;;;5.57;;
12703;SDS011;6416;52.182;7.650;2022-11-20T06:13:54;5.60;;;5.00;;
12703;SDS011;6416;52.182;7.650;2022-11-20T06:16:20;6.57;;;5.03;;
12703;SDS011;6416;52.182;7.650;2022-11-20T06:18:45;5.87;;;5.00;;
12703;SDS011;6416;52.182;7.650;2022-11-20T06:21:12;5.50;;;5.00;;
12703;SDS011;6416;52.182;7.650;2022-11-20T06:23:47;7.17;;;5.60;;
12703;SDS011;6416;52.182;7.650;2022-11-20T06:26:18;6.50;;;5.13;;
12703;SDS011;6416;52.182;7.650;2022-11-20T06:28:45;6.40;;;5.10;;
12703;SDS011;6416;52.182;7.650;2022-11-20T06:31:12;7.00;;;5.33;;
12703;SDS011;6416;52.182;7.650;2022-11-20T06:33:38;6.70;;;5.30;;
12703;SDS011;6416;52.182;7.650;2022-11-20T06:36:04;7.33;;;5.27;;
12703;SDS011;6416;52.182;7.650;2022-11-20T06:38:30;6.10;;;5.50;;
12703;SDS011;6416;52.182;7.650;2022-11-20T06:40:55;5.97;;;5.13;;
12703;SDS011;6416;52.182;7.650;2022-11-20T06:43:21;6.70;;;5.30;;
12703;SDS011;6416;52.182;7.650;2022-11-20T06:45:54;7.33;;;5.50;;
12703;SDS011;6416;52.182;7.650;2022-11-20T06:48:20;7.10;;;5.83;;
12703;SDS011;6416;52.182;7.650;2022-11-20T06:50:46;5.93;;;5.33;;
12703;SDS011;6416;52.182;7.650;2022-11-20T06:53:11;7.27;;;5.97;;
12703;SDS011;6416;52.182;7.650;2022-11-20T06:55:37;9.40;;;6.10;;
12703;SDS011;6416;52.182;7.650;2022-11-20T06:58:07;6.90;;;6.20;;
12703;SDS011;6416;52.182;7.650;2022-11-20T07:00:33;6.90;;;6.20;;
12703;SDS011;6416;52.182;7.650;2022-11-20T07:02:59;5.97;;;5.47;;
12703;SDS011;6416;52.182;7.650;2022-11-20T07:05:28;6.43;;;5.47;;
12703;SDS011;6416;52.182;7.650;2022-11-20T07:07:55;6.03;;;5.10;;
12703;SDS011;6416;52.182;7.650;2022-11-20T07:10:21;7.17;;;6.20;;
12703;SDS011;6416;52.182;7.650;2022-11-20T07:12:50;7.53;;;6.20;;
12703;SDS011;6416;52.182;7.650;2022-11-20T07:15:17;8.20;;;6.80;;
12703;SDS011;6416;52.182;7.650;2022-11-20T07:17:43;8.37;;;7.40;;
12703;SDS011;6416;52.182;7.650;2022-11-20T07:20:09;8.10;;;6.20;;
12703;SDS011;6416;52.182;7.650;2022-11-20T07:22:34;7.90;;;6.33;;
12703;SDS011;6416;52.182;7.650;2022-11-20T07:25:00;7.63;;;6.27;;
12703;SDS011;6416;52.182;7.650;2022-11-20T07:27:25;7.17;;;6.47;;
12703;SDS011;6416;52.182;7.650;2022-11-20T07:29:51;8.37;;;7.17;;
12703;SDS011;6416;52.182;7.650;2022-11-20T07:32:16;10.90;;;8.07;;
12703;SDS011;6416;52.182;7.650;2022-11-20T07:34:42;9.77;;;8.07;;
12703;SDS011;6416;52.182;7.650;2022-11-20T07:37:07;9.60;;;8.13;;
12703;SDS011;6416;52.182;7.650;2022-11-20T07:39:33;10.33;;;7.97;;
12703;SDS011;6416;52.182;7.650;2022-11-20T07:41:58;11.57;;;8.93;;
12703;SDS011;6416;52.182;7.650;2022-11-20T07:44:24;9.83;;;7.90;;
12703;SDS011;6416;52.182;7.650;2022-11-20T07:46:49;9.77;;;8.03;;
12703;SDS011;6416;52.182;7.650;2022-11-20T07:49:14;12.40;;;8.70;;
12703;SDS011;6416;52.182;7.650;2022-11-20T07:51:40;11.50;;;9.00;;
12703;SDS011;6416;52.182;7.650;2022-11-20T07:54:05;12.23;;;9.53;;
12703;SDS011;6416;52.182;7.650;2022-11-20T07:56:31;12.13;;;9.53;;
12703;SDS011;6416;52.182;7.650;2022-11-20T07:58:56;12.80;;;9.77;;
12703;SDS011;6416;52.182;7.650;2022-11-20T08:01:22;12.53;;;9.03;;
12703;SDS011;6416;52.182;7.650;2022-11-20T08:03:47;14.87;;;9.40;;
12703;SDS011;6416;52.182;7.650;2022-11-20T08:06:13;10.73;;;8.27;;
12703;SDS011;6416;52.182;7.650;2022-11-20T08:08:38;12.40;;;8.20;;
12703;SDS011;6416;52.182;7.650;2022-11-20T08:11:04;10.97;;;6.87;;
12703;SDS011;6416;52.182;7.650;2022-11-20T08:13:29;12.50;;;8.03;;
12703;SDS011;6416;52.182;7.650;2022-11-20T08:15:55;10.73;;;8.33;;
12703;SDS011;6416;52.182;7.650;2022-11-20T08:18:20;16.83;;;7.93;;
12703;SDS011;6416;52.182;7.650;2022-11-20T08:20:46;12.53;;;8.33;;
12703;SDS011;6416;52.182;7.650;2022-11-20T08:23:11;10.80;;;8.73;;
12703;SDS011;6416;52.182;7.650;2022-11-20T08:25:37;11.43;;;8.43;;
12703;SDS011;6416;52.182;7.650;2022-11-20T08:28:04;10.70;;;7.80;;
12703;SDS011;6416;52.182;7.650;2022-11-20T08:30:31;16.47;;;8.80;;
12703;SDS011;6416;52.182;7.650;2022-11-20T08:33:01;12.43;;;8.00;;
12703;SDS011;6416;52.182;7.650;2022-11-20T08:35:32;14.30;;;8.57;;
12703;SDS011;6416;52.182;7.650;2022-11-20T08:37:58;22.03;;;8.27;;
12703;SDS011;6416;52.182;7.650;2022-11-20T08:40:23;11.17;;;7.90;;
12703;SDS011;6416;52.182;7.650;2022-11-20T08:42:49;13.70;;;8.53;;
12703;SDS011;6416;52.182;7.650;2022-11-20T08:45:16;15.77;;;8.77;;
12703;SDS011;6416;52.182;7.650;2022-11-20T08:47:42;14.20;;;7.97;;
12703;SDS011;6416;52.182;7.650;2022-11-20T08:50:09;16.20;;;8.23;;
12703;SDS011;6416;52.182;7.650;2022-11-20T08:52:35;10.93;;;7.97;;
12703;SDS011;6416;52.182;7.650;2022-11-20T08:55:01;16.93;;;11.63;;
12703;SDS011;6416;52.182;7.650;2022-11-20T08:57:26;18.57;;;9.87;;
12703;SDS011;6416;52.182;7.650;2022-11-20T08:59:52;15.57;;;9.27;;
12703;SDS011;6416;52.182;7.650;2022-11-20T09:02:17;15.97;;;10.17;;
12703;SDS011;6416;52.182;7.650;2022-11-20T09:04:43;14.93;;;8.20;;
12703;SDS011;6416;52.182;7.650;2022-11-20T09:07:08;13.97;;;8.87;;
12703;SDS011;6416;52.182;7.650;2022-11-20T09:09:34;12.33;;;8.43;;
12703;SDS011;6416;52.182;7.650;2022-11-20T09:11:59;12.10;;;8.50;;
12703;SDS011;6416;52.182;7.650;2022-11-20T09:14:24;17.17;;;9.17;;
12703;SDS011;6416;52.182;7.650;2022-11-20T09:16:50;15.97;;;9.00;;
12703;SDS011;6416;52.182;7.650;2022-11-20T09:19:15;15.63;;;8.87;;
12703;SDS011;6416;52.182;7.650;2022-11-20T09:21:41;15.20;;;9.03;;
12703;SDS011;6416;52.182;7.650;2022-11-20T09:24:06;23.17;;;10.03;;
12703;SDS011;6416;52.182;7.650;2022-11-20T09:26:32;14.50;;;9.17;;
12703;SDS011;6416;52.182;7.650;2022-11-20T09:28:57;12.07;;;8.93;;
12703;SDS011;6416;52.182;7.650;2022-11-20T09:31:24;14.63;;;9.50;;
12703;SDS011;6416;52.182;7.650;2022-11-20T09:33:50;19.47;;;9.83;;
12703;SDS011;6416;52.182;7.650;2022-11-20T09:36:15;20.20;;;10.20;;
12703;SDS011;6416;52.182;7.650;2022-11-20T09:38:40;14.13;;;9.67;;
12703;SDS011;6416;52.182;7.650;2022-11-20T09:41:06;23.07;;;9.80;;
12703;SDS011;6416;52.182;7.650;2022-11-20T09:43:56;18.00;;;9.40;;
12703;SDS011;6416;52.182;7.650;2022-11-20T09:46:48;23.07;;;9.83;;
12703;SDS011;6416;52.182;7.650;2022-11-20T09:54:43;15.50;;;10.13;;
12703;SDS011;6416;52.182;7.650;2022-11-20T09:57:13;16.70;;;10.67;;
12703;SDS011;6416;52.182;7.650;2022-11-20T09:59:43;15.47;;;10.20;;
12703;SDS011;6416;52.182;7.650;2022-11-20T10:02:25;22.03;;;12.33;;
12703;SDS011;6416;52.182;7.650;2022-11-20T10:07:40;20.53;;;12.83;;
12703;SDS011;6416;52.182;7.650;2022-11-20T10:10:29;21.47;;;13.60;;
12703;SDS011;6416;52.182;7.650;2022-11-20T10:15:40;19.20;;;12.00;;
12703;SDS011;6416;52.182;7.650;2022-11-20T10:18:23;18.73;;;11.47;;
12703;SDS011;6416;52.182;7.650;2022-11-20T10:21:30;19.00;;;12.60;;
12703;SDS011;6416;52.182;7.650;2022-11-20T10:27:21;17.53;;;12.33;;
12703;SDS011;6416;52.182;7.650;2022-11-20T10:30:01;23.33;;;14.80;;
12703;SDS011;6416;52.182;7.650;2022-11-20T10:32:36;22.53;;;13.60;;
12703;SDS011;6416;52.182;7.650;2022-11-20T10:37:40;19.10;;;13.07;;
12703;SDS011;6416;52.182;7.650;2022-11-20T10:43:00;34.17;;;26.00;;
12703;SDS011;6416;52.182;7.650;2022-11-20T10:45:34;22.00;;;15.77;;
12703;SDS011;6416;52.182;7.650;2022-11-20T10:48:21;22.13;;;14.67;;
12703;SDS011;6416;52.182;7.650;2022-11-20T10:50:54;20.23;;;13.87;;
12703;SDS011;6416;52.182;7.650;2022-11-20T10:56:41;18.77;;;13.87;;
12703;SDS011;6416;52.182;7.650;2022-11-20T11:02:12;18.67;;;14.07;;
12703;SDS011;6416;52.182;7.650;2022-11-20T11:04:45;17.90;;;13.33;;
12703;SDS011;6416;52.182;7.650;2022-11-20T11:07:15;19.60;;;13.40;;
12703;SDS011;6416;52.182;7.650;2022-11-20T11:09:48;21.47;;;14.47;;
12703;SDS011;6416;52.182;7.650;2022-11-20T11:12:18;20.23;;;14.33;;
12703;SDS011;6416;52.182;7.650;2022-11-20T11:14:47;20.97;;;15.00;;
12703;SDS011;6416;52.182;7.650;2022-11-20T11:17:21;22.17;;;15.47;;
12703;SDS011;6416;52.182;7.650;2022-11-20T11:19:58;23.80;;;16.00;;
12703;SDS011;6416;52.182;7.650;2022-11-20T11:22:57;21.83;;;14.80;;
12703;SDS011;6416;52.182;7.650;2022-11-20T11:27:57;21.77;;;14.60;;
12703;SDS011;6416;52.182;7.650;2022-11-20T11:30:24;20.13;;;14.67;;
12703;SDS011;6416;52.182;7.650;2022-11-20T11:33:01;25.03;;;15.83;;
12703;SDS011;6416;52.182;7.650;2022-11-20T11:35:28;22.57;;;15.63;;
12703;SDS011;6416;52.182;7.650;2022-11-20T11:37:54;20.77;;;15.53;;
12703;SDS011;6416;52.182;7.650;2022-11-20T11:40:28;25.73;;;15.97;;
12703;SDS011;6416;52.182;7.650;2022-11-20T11:42:58;27.57;;;19.77;;
12703;SDS011;6416;52.182;7.650;2022-11-20T11:45:26;26.57;;;19.10;;
12703;SDS011;6416;52.182;7.650;2022-11-20T11:47:52;23.77;;;16.17;;
12703;SDS011;6416;52.182;7.650;2022-11-20T11:50:21;25.00;;;17.43;;
12703;SDS011;6416;52.182;7.650;2022-11-20T11:55:38;22.07;;;14.97;;
12703;SDS011;6416;52.182;7.650;2022-11-20T11:58:57;21.33;;;15.43;;
12703;SDS011;6416;52.182;7.650;2022-11-20T12:04:13;25.50;;;16.47;;
12703;SDS011;6416;52.182;7.650;2022-11-20T12:06:42;25.67;;;16.50;;
12703;SDS011;6416;52.182;7.650;2022-11-20T12:09:10;26.70;;;17.73;;
12703;SDS011;6416;52.182;7.650;2022-11-20T12:16:59;24.10;;;16.67;;
12703;SDS011;6416;52.182;7.650;2022-11-20T12:19:29;23.53;;;16.57;;
12703;SDS011;6416;52.182;7.650;2022-11-20T12:22:04;23.27;;;15.37;;
12703;SDS011;6416;52.182;7.650;2022-11-20T12:30:21;20.47;;;14.27;;
12703;SDS011;6416;52.182;7.650;2022-11-20T12:47:11;18.63;;;13.73;;
12703;SDS011;6416;52.182;7.650;2022-11-20T12:53:03;20.07;;;13.90;;
12703;SDS011;6416;52.182;7.650;2022-11-20T12:55:35;22.13;;;15.50;;
12703;SDS011;6416;52.182;7.650;2022-11-20T13:00:47;19.50;;;15.10;;
12703;SDS011;6416;52.182;7.650;2022-11-20T13:03:42;19.77;;;14.97;;
12703;SDS011;6416;52.182;7.650;2022-11-20T13:06:17;20.37;;;14.97;;
12703;SDS011;6416;52.182;7.650;2022-11-20T13:08:53;23.57;;;16.13;;
12703;SDS011;6416;52.182;7.650;2022-11-20T13:14:03;20.07;;;14.93;;
12703;SDS011;6416;52.182;7.650;2022-11-20T13:16:37;19.97;;;15.23;;
12703;SDS011;6416;52.182;7.650;2022-11-20T13:19:13;19.07;;;15.00;;
12703;SDS011;6416;52.182;7.650;2022-11-20T13:21:42;20.83;;;14.57;;
12703;SDS011;6416;52.182;7.650;2022-11-20T13:26:46;17.27;;;13.97;;
12703;SDS011;6416;52.182;7.650;2022-11-20T13:29:16;20.67;;;15.73;;
12703;SDS011;6416;52.182;7.650;2022-11-20T13:31:44;18.10;;;14.57;;
12703;SDS011;6416;52.182;7.650;2022-11-20T13:34:26;17.17;;;13.53;;
12703;SDS011;6416;52.182;7.650;2022-11-20T13:36:54;19.93;;;15.00;;
12703;SDS011;6416;52.182;7.650;2022-11-20T13:39:25;17.57;;;14.27;;
12703;SDS011;6416;52.182;7.650;2022-11-20T13:41:57;17.00;;;13.73;;
12703;SDS011;6416;52.182;7.650;2022-11-20T13:44:28;17.03;;;13.67;;
12703;SDS011;6416;52.182;7.650;2022-11-20T13:46:59;17.43;;;14.17;;
12703;SDS011;6416;52.182;7.650;2022-11-20T13:52:48;18.17;;;13.47;;
12703;SDS011;6416;52.182;7.650;2022-11-20T13:54:51;17.27;;;13.57;;
12703;SDS011;6416;52.182;7.650;2022-11-20T13:57:40;16.33;;;13.07;;
12703;SDS011;6416;52.182;7.650;2022-11-20T14:00:16;17.73;;;13.67;;
12703;SDS011;6416;52.182;7.650;2022-11-20T14:02:44;15.57;;;12.90;;
12703;SDS011;6416;52.182;7.650;2022-11-20T14:05:26;15.60;;;12.60;;
12703;SDS011;6416;52.182;7.650;2022-11-20T14:07:52;15.90;;;12.63;;
12703;SDS011;6416;52.182;7.650;2022-11-20T14:10:28;15.20;;;12.57;;
12703;SDS011;6416;52.182;7.650;2022-11-20T14:12:54;16.10;;;13.00;;
12703;SDS011;6416;52.182;7.650;2022-11-20T14:15:30;15.13;;;11.70;;
12703;SDS011;6416;52.182;7.650;2022-11-20T14:17:57;15.57;;;12.23;;
12703;SDS011;6416;52.182;7.650;2022-11-20T14:20:27;15.77;;;12.73;;
12703;SDS011;6416;52.182;7.650;2022-11-20T14:22:55;15.73;;;13.30;;
12703;SDS011;6416;52.182;7.650;2022-11-20T14:25:21;18.77;;;14.00;;
12703;SDS011;6416;52.182;7.650;2022-11-20T14:27:52;14.93;;;12.83;;
12703;SDS011;6416;52.182;7.650;2022-11-20T14:30:21;16.53;;;13.50;;
12703;SDS011;6416;52.182;7.650;2022-11-20T14:32:53;14.40;;;12.30;;
12703;SDS011;6416;52.182;7.650;2022-11-20T14:35:28;16.73;;;13.60;;
12703;SDS011;6416;52.182;7.650;2022-11-20T14:37:55;14.80;;;12.10;;
12703;SDS011;6416;52.182;7.650;2022-11-20T14:42:47;17.33;;;12.73;;
12703;SDS011;6416;52.182;7.650;2022-11-20T14:45:13;15.47;;;13.20;;
12703;SDS011;6416;52.182;7.650;2022-11-20T14:47:39;16.57;;;13.97;;
12703;SDS011;6416;52.182;7.650;2022-11-20T14:50:07;21.07;;;15.77;;
12703;SDS011;6416;52.182;7.650;2022-11-20T14:52:40;23.10;;;18.07;;
12703;SDS011;6416;52.182;7.650;2022-11-20T14:55:25;19.53;;;14.80;;
12703;SDS011;6416;52.182;7.650;2022-11-20T14:58:04;18.20;;;15.20;;
12703;SDS011;6416;52.182;7.650;2022-11-20T15:00:54;18.47;;;14.03;;
12703;SDS011;6416;52.182;7.650;2022-11-20T15:03:34;15.20;;;13.37;;
12703;SDS011;6416;52.182;7.650;2022-11-20T15:06:01;15.47;;;13.87;;
12703;SDS011;6416;52.182;7.650;2022-11-20T15:08:26;15.10;;;12.90;;
12703;SDS011;6416;52.182;7.650;2022-11-20T15:10:52;14.47;;;11.83;;
12703;SDS011;6416;52.182;7.650;2022-11-20T15:13:51;14.93;;;12.87;;
12703;SDS011;6416;52.182;7.650;2022-11-20T15:16:18;14.53;;;12.33;;
12703;SDS011;6416;52.182;7.650;2022-11-20T15:18:45;13.73;;;12.03;;
12703;SDS011;6416;52.182;7.650;2022-11-20T15:21:12;14.30;;;12.10;;
12703;SDS011;6416;52.182;7.650;2022-11-20T15:23:39;13.03;;;11.67;;
12703;SDS011;6416;52.182;7.650;2022-11-20T15:26:05;15.13;;;12.97;;
12703;SDS011;6416;52.182;7.650;2022-11-20T15:31:01;15.83;;;12.80;;
12703;SDS011;6416;52.182;7.650;2022-11-20T15:33:28;14.10;;;11.93;;
12703;SDS011;6416;52.182;7.650;2022-11-20T15:35:53;15.00;;;13.07;;
12703;SDS011;6416;52.182;7.650;2022-11-20T15:38:19;14.40;;;12.13;;
12703;SDS011;6416;52.182;7.650;2022-11-20T15:40:44;14.73;;;12.77;;
12703;SDS011;6416;52.182;7.650;2022-11-20T15:43:13;14.43;;;12.63;;
12703;SDS011;6416;52.182;7.650;2022-11-20T15:45:46;14.30;;;12.33;;
12703;SDS011;6416;52.182;7.650;2022-11-20T15:48:18;12.93;;;11.57;;
12703;SDS011;6416;52.182;7.650;2022-11-20T15:53:32;13.90;;;11.50;;
12703;SDS011;6416;52.182;7.650;2022-11-20T15:55:58;12.80;;;10.83;;
12703;SDS011;6416;52.182;7.650;2022-11-20T15:58:23;13.30;;;11.77;;
12703;SDS011;6416;52.182;7.650;2022-11-20T16:00:49;14.63;;;12.13;;
12703;SDS011;6416;52.182;7.650;2022-11-20T16:03:15;12.63;;;11.20;;
12703;SDS011;6416;52.182;7.650;2022-11-20T16:05:41;13.10;;;11.37;;
12703;SDS011;6416;52.182;7.650;2022-11-20T16:08:07;12.87;;;11.50;;
12703;SDS011;6416;52.182;7.650;2022-11-20T16:10:33;13.33;;;11.57;;
12703;SDS011;6416;52.182;7.650;2022-11-20T16:12:59;13.93;;;12.00;;
12703;SDS011;6416;52.182;7.650;2022-11-20T16:15:24;12.03;;;10.73;;
12703;SDS011;6416;52.182;7.650;2022-11-20T16:17:49;12.67;;;11.37;;
12703;SDS011;6416;52.182;7.650;2022-11-20T16:20:18;13.20;;;11.20;;
12703;SDS011;6416;52.182;7.650;2022-11-20T16:22:44;12.13;;;10.83;;